Time;durP1;ratioP1;P1;durP2;ratioP2;P2;SDS_P1;SDS_P2;PMS_P1;PMS_P2;Temp;Humidity;BMP_temperature;BMP_pressure;BME280_temperature;BME280_humidity;BME280_pressure;Samples;Min_cycle;Max_cycle;Signal;HPM_P1;HPM_P2
2021/12/08 00:01:17;;;;;;;6.65;2.60;;;;;;;3.64;59.78;97656.84;5100559;29;20071;-72
2021/12/08 00:04:07;;;;;;;5.55;2.33;;;;;;;3.61;60.40;97655.34;5100209;29;20192;-72
2021/12/08 00:06:57;;;;;;;5.30;2.45;;;;;;;3.42;59.63;97639.53;5102777;29;20087;-69
2021/12/08 00:10:00;;;;;;;10.05;2.70;;;;;;;3.52;59.87;97650.88;5101862;29;20122;-72
2021/12/08 00:13:03;;;;;;;5.70;2.70;;;;;;;3.22;61.07;97644.69;5102288;29;20561;-72
2021/12/08 00:15:58;;;;;;;5.60;2.80;;;;;;;3.38;60.55;97635.50;5102259;29;20178;-70
2021/12/08 00:18:49;;;;;;;7.05;2.83;;;;;;;3.60;59.56;97624.84;5101293;29;20307;-70
2021/12/08 00:21:39;;;;;;;8.00;2.58;;;;;;;3.48;60.06;97628.53;5086823;29;20083;-70
2021/12/08 00:24:29;;;;;;;12.80;2.92;;;;;;;3.93;58.25;97622.84;5082795;29;20538;-70
2021/12/08 00:27:19;;;;;;;5.38;2.47;;;;;;;3.92;58.12;97618.56;5082682;29;20195;-70
2021/12/08 00:30:09;;;;;;;6.20;2.20;;;;;;;3.87;57.95;97607.66;5096524;29;20074;-70
2021/12/08 00:33:00;;;;;;;6.55;2.40;;;;;;;3.93;58.80;97622.84;5102230;29;20060;-70
2021/12/08 00:35:52;;;;;;;3.78;2.08;;;;;;;3.69;58.81;97608.31;5101461;29;20062;-70
2021/12/08 00:38:44;;;;;;;5.78;2.40;;;;;;;3.67;61.21;97615.47;5101886;29;20051;-70
2021/12/08 00:41:35;;;;;;;7.30;2.40;;;;;;;4.15;60.19;97606.84;5100407;29;20510;-70
2021/12/08 00:44:25;;;;;;;11.25;2.35;;;;;;;3.86;61.91;97604.19;5102174;29;20059;-70
2021/12/08 00:47:16;;;;;;;7.53;2.63;;;;;;;4.05;60.98;97620.94;5100545;29;20427;-70
2021/12/08 00:50:09;;;;;;;4.38;2.13;;;;;;;4.15;59.54;97625.22;5099114;29;20050;-70
2021/12/08 00:52:59;;;;;;;10.45;2.65;;;;;;;4.74;58.29;97625.22;5082833;29;20088;-70
2021/12/08 00:55:50;;;;;;;5.93;2.40;;;;;;;4.78;57.28;97613.44;5081315;29;20103;-70
2021/12/08 00:58:40;;;;;;;6.05;2.35;;;;;;;4.20;58.38;97609.88;5091138;29;20140;-70
2021/12/08 01:01:41;;;;;;;6.10;2.40;;;;;;;4.53;59.33;97605.19;5095457;29;20040;-70
2021/12/08 01:04:34;;;;;;;8.07;2.35;;;;;;;4.68;58.39;97608.22;5100519;29;20039;-70
2021/12/08 01:07:24;;;;;;;3.63;1.90;;;;;;;4.79;58.54;97607.22;5100136;29;20059;-70
2021/12/08 01:10:21;;;;;;;5.55;2.28;;;;;;;4.92;58.20;97607.75;5100250;29;20087;-70
2021/12/08 01:13:25;;;;;;;7.05;2.35;;;;;;;4.68;58.80;97613.47;5101978;29;20083;-70
2021/12/08 01:16:18;;;;;;;4.25;2.20;;;;;;;4.56;59.98;97628.53;5101388;29;20415;-70
2021/12/08 01:19:08;;;;;;;5.40;2.35;;;;;;;4.37;62.21;97641.66;5091518;29;20075;-70
2021/12/08 01:21:59;;;;;;;5.00;2.13;;;;;;;4.41;62.96;97659.63;5081931;29;20059;-70
2021/12/08 01:24:49;;;;;;;6.85;2.28;;;;;;;4.41;62.86;97656.19;5081259;29;20051;-70
2021/12/08 01:27:39;;;;;;;6.07;2.83;;;;;;;4.47;62.23;97647.75;5080790;29;20047;-71
2021/12/08 01:30:29;;;;;;;5.80;2.35;;;;;;;4.37;63.40;97657.38;5097678;29;20159;-70
2021/12/08 01:33:25;;;;;;;9.50;2.78;;;;;;;4.29;63.86;97638.91;5086068;29;20494;-70
2021/12/08 01:36:16;;;;;;;6.72;2.55;;;;;;;4.81;62.37;97634.19;5101926;29;20048;-70
2021/12/08 01:39:07;;;;;;;7.82;2.40;;;;;;;4.15;64.53;97643.59;5104919;29;20078;-70
2021/12/08 01:41:58;;;;;;;4.55;2.88;;;;;;;4.64;61.06;97649.66;5104035;29;20054;-71
2021/12/08 01:47:57;;;;;;;8.32;2.60;;;;;;;3.35;66.77;97607.81;5104445;29;20126;-71
2021/12/08 01:50:51;;;;;;;6.72;2.47;;;;;;;3.10;67.42;97608.25;5084161;29;20207;-69
2021/12/08 01:53:41;;;;;;;;;;;;;;;3.84;65.48;97607.91;5085919;29;20092;-70
2021/12/08 01:56:34;;;;;;;7.97;2.83;;;;;;;3.61;66.26;97608.16;5084592;29;20022;-70
2021/12/08 01:59:24;;;;;;;6.90;2.70;;;;;;;3.79;66.18;97602.25;5096490;29;20138;-70
2021/12/08 02:02:14;;;;;;;4.45;2.40;;;;;;;3.95;65.22;97613.88;5102018;29;20414;-71
2021/12/08 02:05:06;;;;;;;10.43;2.85;;;;;;;3.81;66.09;97619.53;5100424;29;20123;-70
2021/12/08 02:07:56;;;;;;;7.13;3.15;;;;;;;4.02;65.35;97623.84;5103662;29;20122;-70
2021/12/08 02:10:47;;;;;;;5.93;2.40;;;;;;;3.87;65.17;97623.38;5084387;29;20094;-70
2021/12/08 02:13:40;;;;;;;6.78;2.85;;;;;;;3.68;66.67;97619.78;5102692;29;20047;-70
2021/12/08 02:16:31;;;;;;;4.93;2.38;;;;;;;4.10;65.18;97635.28;5103279;29;20055;-70
2021/12/08 02:19:22;;;;;;;4.15;2.42;;;;;;;3.87;65.69;97613.72;5102586;29;20055;-70
2021/12/08 02:22:12;;;;;;;9.80;2.58;;;;;;;3.90;67.08;97629.19;5102933;29;20058;-70
2021/12/08 02:25:12;;;;;;;6.28;2.60;;;;;;;3.40;67.24;97634.41;5104630;29;20126;-70
2021/12/08 02:28:04;;;;;;;8.02;2.90;;;;;;;3.38;68.69;97630.25;5103914;29;20059;-70
2021/12/08 02:31:01;;;;;;;8.10;2.55;;;;;;;3.80;66.80;97606.53;5089577;29;20123;-70
2021/12/08 02:46:52;;;;;;;4.32;2.63;;;;;;;3.84;67.40;97606.16;5276537;23;20058;-70
2021/12/08 02:49:43;;;;;;;9.13;2.83;;;;;;;3.93;66.26;97622.84;5146877;28;20113;-70
2021/12/08 02:52:33;;;;;;;4.60;2.05;;;;;;;3.92;67.59;97601.03;5134688;28;20039;-71
2021/12/08 02:55:25;;;;;;;8.60;2.50;;;;;;;3.70;67.92;97602.09;5123117;28;20056;-71
2021/12/08 02:58:16;;;;;;;3.30;2.10;;;;;;;3.73;68.26;97606.25;5120876;29;20070;-70
2021/12/08 03:01:10;;;;;;;10.10;2.65;;;;;;;3.70;67.76;97590.78;5102529;29;20051;-71
2021/12/08 03:04:01;;;;;;;9.18;2.97;;;;;;;3.95;67.52;97598.16;5111564;29;20070;-70
2021/12/08 03:06:51;;;;;;;9.27;3.05;;;;;;;3.82;67.82;97578.41;5110545;29;20756;-71
2021/12/08 03:09:41;;;;;;;8.10;2.88;;;;;;;3.82;67.91;97588.88;5107065;28;20102;-70
2021/12/08 03:12:31;;;;;;;14.95;3.33;;;;;;;3.55;69.30;97576.44;5103553;29;20150;-70
2021/12/08 03:15:22;;;;;;;6.25;2.97;;;;;;;3.80;68.56;97586.38;5103780;29;20062;-71
2021/12/08 03:18:12;;;;;;;10.43;3.33;;;;;;;4.02;67.69;97593.19;5102152;29;20147;-70
2021/12/08 03:21:05;;;;;;;5.55;2.72;;;;;;;3.95;68.28;97602.56;5103499;29;20055;-70
2021/12/08 03:29:59;;;;;;;8.57;3.50;;;;;;;3.62;68.93;97599.31;5103207;29;20100;-70
2021/12/08 03:32:55;;;;;;;6.20;3.60;;;;;;;3.62;69.24;97596.72;5107257;29;20152;-70
2021/12/08 03:35:45;;;;;;;8.13;3.30;;;;;;;3.64;69.03;97586.06;5114507;28;20082;-71
2021/12/08 03:38:37;;;;;;;5.65;3.15;;;;;;;3.78;68.03;97598.81;5112266;28;20576;-71
2021/12/08 03:41:32;;;;;;;6.35;3.30;;;;;;;3.78;68.23;97600.63;5107950;29;20089;-71
2021/12/08 03:44:22;;;;;;;4.93;2.90;;;;;;;3.87;69.52;97595.34;5113812;29;20051;-71
2021/12/08 03:47:16;;;;;;;8.73;3.50;;;;;;;3.57;69.45;97577.09;5122551;28;20046;-71
2021/12/08 03:50:08;;;;;;;;;;;;;;;3.94;69.71;97591.25;5120246;29;20062;-70
2021/12/08 03:52:58;;;;;;;8.30;3.10;;;;;;;3.92;68.44;97584.47;5102841;29;19923;-70
2021/12/08 03:55:52;;;;;;;7.85;3.30;;;;;;;3.95;68.98;97578.97;5101681;29;20079;-71
2021/12/08 03:58:42;;;;;;;5.68;3.28;;;;;;;3.89;69.02;97585.56;5101842;29;20067;-70
2021/12/08 04:01:34;;;;;;;7.25;2.90;;;;;;;3.87;69.37;97591.91;5102371;29;20055;-71
2021/12/08 04:04:27;;;;;;;6.40;3.25;;;;;;;3.71;70.13;97574.94;5105660;29;20110;-70
2021/12/08 04:07:18;;;;;;;10.60;3.15;;;;;;;3.84;69.91;97593.03;5115326;29;20054;-71
2021/12/08 04:10:16;;;;;;;6.70;3.20;;;;;;;4.25;68.14;97575.38;5109655;29;20063;-70
2021/12/08 04:13:06;;;;;;;5.63;3.03;;;;;;;3.81;70.68;97561.00;5118309;28;20050;-71
2021/12/08 04:15:57;;;;;;;7.95;3.70;;;;;;;3.72;70.53;97549.53;5093726;29;20111;-73
2021/12/08 04:18:49;;;;;;;5.63;3.15;;;;;;;3.95;71.10;97576.34;5102769;29;20079;-70
2021/12/08 04:21:40;;;;;;;7.60;3.35;;;;;;;3.98;70.28;97578.69;5102152;29;20070;-70
2021/12/08 04:24:31;;;;;;;5.10;3.53;;;;;;;3.94;71.02;97591.25;5115046;29;20048;-71
2021/12/08 04:27:29;;;;;;;6.32;2.90;;;;;;;4.05;71.05;97589.47;5102213;29;20654;-70
2021/12/08 04:30:32;;;;;;;7.82;3.45;;;;;;;4.04;69.86;97586.00;5102636;29;20055;-70
2021/12/08 04:33:28;;;;;;;9.13;3.67;;;;;;;4.10;70.90;97598.56;5101379;29;20145;-72
2021/12/08 04:36:18;;;;;;;6.82;3.42;;;;;;;4.48;70.02;97607.41;5095904;29;20050;-70
2021/12/08 04:39:42;;;;;;;8.60;3.75;;;;;;;4.35;70.40;97602.44;5112875;29;20043;-70
2021/12/08 04:42:54;;;;;;;6.03;3.60;;;;;;;4.32;71.10;97599.25;5113717;29;20050;-73
2021/12/08 04:46:06;;;;;;;7.72;3.65;;;;;;;4.27;71.25;97593.59;5089612;29;20102;-74
2021/12/08 04:52:17;;;;;;;9.38;3.97;;;;;;;4.19;71.51;97589.88;5105140;29;20047;-73
2021/12/08 05:10:32;;;;;;;7.32;4.55;;;;;;;3.79;76.31;97552.44;5113814;29;20056;-71
2021/12/08 05:13:22;;;;;;;13.13;5.28;;;;;;;3.83;75.77;97567.75;5112902;29;20063;-72
2021/12/08 05:16:13;;;;;;;10.95;5.55;;;;;;;4.27;74.72;97586.53;5109036;29;20055;-71
2021/12/08 05:19:09;;;;;;;7.50;4.97;;;;;;;4.74;73.07;97589.28;5105708;29;20134;-68
2021/12/08 05:22:02;;;;;;;11.82;4.93;;;;;;;4.74;72.54;97591.06;5104960;29;20094;-73
2021/12/08 05:24:55;;;;;;;13.45;5.13;;;;;;;4.82;72.23;97586.75;5105768;29;20058;-69
2021/12/08 05:27:50;;;;;;;26.10;11.35;;;;;;;4.84;71.57;97587.44;5116591;29;20039;-68
2021/12/08 05:30:51;;;;;;;10.45;5.38;;;;;;;4.96;71.45;97593.34;5108616;29;20051;-69
2021/12/08 05:33:43;;;;;;;11.15;5.53;;;;;;;4.94;72.25;97598.75;5104535;29;20154;-71
2021/12/08 05:36:34;;;;;;;12.07;5.57;;;;;;;4.94;72.78;97601.38;5105184;29;20473;-70
2021/12/08 05:39:27;;;;;;;13.98;6.00;;;;;;;5.09;72.17;97595.66;5104635;29;20492;-68
2021/12/08 05:42:27;;;;;;;9.90;5.55;;;;;;;5.12;72.42;97583.06;5105364;29;20054;-69
2021/12/08 05:45:19;;;;;;;10.05;5.82;;;;;;;5.05;72.96;97595.13;5105076;28;20047;-69
2021/12/08 05:48:11;;;;;;;12.37;6.43;;;;;;;5.02;72.92;97603.28;5106654;29;20047;-71
2021/12/08 05:51:14;;;;;;;11.80;6.65;;;;;;;5.10;72.02;97603.41;5115400;29;20046;-72
2021/12/08 05:54:12;;;;;;;15.52;6.60;;;;;;;5.16;72.34;97602.00;5104917;29;20044;-70
2021/12/08 05:57:14;;;;;;;13.85;6.68;;;;;;;5.85;68.94;97608.56;5105045;29;20095;-70
2021/12/08 06:00:13;;;;;;;15.80;7.43;;;;;;;5.31;72.32;97599.72;5106791;29;20505;-69
2021/12/08 06:03:04;;;;;;;12.70;7.55;;;;;;;5.16;72.43;97592.31;5107788;29;20058;-69
2021/12/08 06:05:56;;;;;;;13.15;7.90;;;;;;;5.02;72.47;97579.63;5098918;28;20050;-72
2021/12/08 06:08:47;;;;;;;17.95;8.60;;;;;;;5.07;71.96;97545.91;5108548;29;20047;-68
2021/12/08 06:11:38;;;;;;;11.75;8.68;;;;;;;3.97;77.16;97543.78;5106341;29;20058;-68
2021/12/08 06:14:32;;;;;;;12.93;8.43;;;;;;;3.33;80.52;97544.22;5106471;29;20051;-68
2021/12/08 06:17:26;;;;;;;17.70;9.13;;;;;;;3.08;81.17;97542.06;5104801;29;20712;-68
2021/12/08 06:20:18;;;;;;;19.30;9.77;;;;;;;2.98;81.54;97548.13;5109466;29;20705;-68
2021/12/08 06:23:09;;;;;;;19.17;9.88;;;;;;;2.79;82.78;97532.31;5104230;29;20066;-69
2021/12/08 06:25:59;;;;;;;20.00;11.00;;;;;;;2.88;82.22;97531.53;5114414;28;20098;-69
2021/12/08 06:28:49;;;;;;;23.00;9.48;;;;;;;2.75;83.73;97537.00;5116999;29;20752;-69
2021/12/08 06:31:40;;;;;;;19.35;9.50;;;;;;;2.79;83.24;97514.81;5116422;29;20054;-70
2021/12/08 06:34:31;;;;;;;21.30;10.10;;;;;;;2.86;82.84;97504.66;5106665;29;20050;-69
2021/12/08 06:37:26;;;;;;;19.23;10.05;;;;;;;2.69;84.06;97479.09;5107278;29;20054;-69
2021/12/08 06:40:26;;;;;;;16.50;10.02;;;;;;;2.72;84.27;97482.28;5123387;29;20214;-69
2021/12/08 06:43:21;;;;;;;21.75;10.45;;;;;;;2.75;84.10;97489.06;5123923;29;20043;-69
2021/12/08 06:46:12;;;;;;;19.33;9.50;;;;;;;2.84;83.96;97496.09;5123475;28;20548;-69
2021/12/08 06:49:06;;;;;;;15.77;8.77;;;;;;;3.15;83.11;97512.63;5102573;29;20074;-69
2021/12/08 06:52:25;;;;;;;21.33;14.05;;;;;;;3.94;81.04;97541.44;5103969;29;20048;-69
2021/12/08 06:55:24;;;;;;;13.02;8.35;;;;;;;5.03;75.25;97544.50;5104330;29;20048;-69
2021/12/08 06:58:19;;;;;;;16.50;8.70;;;;;;;4.92;75.21;97542.91;5103566;29;20265;-69
2021/12/08 07:01:29;;;;;;;21.17;9.38;;;;;;;4.71;75.81;97544.91;5101830;29;20054;-69
2021/12/08 07:04:34;;;;;;;16.40;8.52;;;;;;;4.38;76.71;97525.25;5102757;29;20066;-69
2021/12/08 07:07:29;;;;;;;12.68;7.88;;;;;;;4.79;76.75;97567.81;5102973;29;20055;-69
2021/12/08 07:10:27;;;;;;;19.10;8.75;;;;;;;5.00;74.78;97572.88;5103252;29;20450;-69
2021/12/08 07:13:22;;;;;;;12.43;8.00;;;;;;;5.48;72.80;97562.16;5103810;29;20055;-69
2021/12/08 07:16:18;;;;;;;13.50;7.80;;;;;;;5.16;73.61;97580.97;5115813;28;20595;-69
2021/12/08 07:19:23;;;;;;;12.10;7.88;;;;;;;5.20;74.34;97592.88;5103406;29;20517;-69
2021/12/08 07:22:26;;;;;;;14.02;7.43;;;;;;;5.85;71.44;97592.78;5103043;29;20442;-70
2021/12/08 07:25:20;;;;;;;14.87;7.43;;;;;;;5.57;72.56;97595.47;5103327;29;20573;-69
2021/12/08 07:28:12;;;;;;;12.32;7.53;;;;;;;5.73;72.27;97594.81;5102710;29;20051;-69
2021/12/08 07:31:09;;;;;;;16.35;7.25;;;;;;;5.74;71.59;97599.09;5103041;29;20064;-69
2021/12/08 07:34:05;;;;;;;12.68;7.05;;;;;;;5.71;72.44;97606.47;5103386;29;20062;-69
2021/12/08 07:37:03;;;;;;;12.18;7.72;;;;;;;5.53;72.88;97586.22;5102940;29;20052;-69
2021/12/08 07:40:00;;;;;;;14.48;7.90;;;;;;;5.57;71.95;97574.44;5103309;29;20106;-69
2021/12/08 07:42:55;;;;;;;15.45;8.55;;;;;;;5.95;71.26;97569.91;5083099;29;20071;-69
2021/12/08 07:45:52;;;;;;;12.68;7.40;;;;;;;6.00;71.15;97580.00;5082968;29;20051;-69
2021/12/08 07:48:50;;;;;;;14.05;7.68;;;;;;;6.01;71.46;97571.94;5083426;29;20195;-69
2021/12/08 07:51:43;;;;;;;15.52;8.95;;;;;;;5.94;71.21;97559.56;5082347;29;20058;-69
2021/12/08 07:54:34;;;;;;;16.73;8.18;;;;;;;6.22;70.24;97560.28;5088035;29;20206;-70
2021/12/08 07:57:27;;;;;;;15.65;8.48;;;;;;;6.21;70.26;97566.53;5102371;29;20454;-69
2021/12/08 08:00:41;;;;;;;14.05;8.80;;;;;;;6.17;70.54;97566.00;5101155;29;20054;-69
2021/12/08 08:03:32;;;;;;;17.88;9.55;;;;;;;6.18;70.35;97564.19;5101800;29;20066;-69
2021/12/08 08:06:29;;;;;;;19.77;10.93;;;;;;;5.85;71.84;97569.13;5102111;29;20115;-69
2021/12/08 08:09:25;;;;;;;18.55;10.35;;;;;;;5.88;70.98;97571.47;5101344;29;20415;-69
2021/12/08 08:12:22;;;;;;;16.83;10.93;;;;;;;5.69;72.06;97576.84;5102380;29;20358;-69
2021/12/08 08:15:24;;;;;;;17.10;10.70;;;;;;;5.98;71.39;97580.13;5102663;29;20111;-70
2021/12/08 08:18:18;;;;;;;18.48;10.63;;;;;;;5.99;71.09;97573.88;5102236;29;20163;-70
2021/12/08 08:21:17;;;;;;;20.38;11.75;;;;;;;5.92;71.18;97571.97;5101329;29;20529;-69
2021/12/08 08:24:09;;;;;;;21.45;11.57;;;;;;;6.15;71.70;97582.94;5102177;29;20190;-68
2021/12/08 08:27:02;;;;;;;22.13;11.57;;;;;;;6.46;68.94;97570.22;5102233;29;20134;-68
2021/12/08 08:29:54;;;;;;;22.70;11.77;;;;;;;6.34;70.24;97582.78;5102577;29;20800;-69
2021/12/08 08:32:48;;;;;;;19.02;10.65;;;;;;;6.20;71.02;97570.16;5102036;29;20098;-68
2021/12/08 08:35:48;;;;;;;20.77;11.60;;;;;;;6.21;70.70;97583.16;5101622;29;20054;-69
2021/12/08 08:38:47;;;;;;;22.35;11.57;;;;;;;6.19;71.25;97600.91;5100944;29;20043;-69
2021/12/08 08:41:59;;;;;;;52.67;22.73;;;;;;;6.14;71.13;97607.59;5101570;29;20539;-68
2021/12/08 08:45:05;;;;;;;113.30;45.08;;;;;;;6.13;71.45;97603.31;5102432;29;20130;-69
2021/12/08 08:48:11;;;;;;;119.03;45.75;;;;;;;6.29;70.91;97593.78;5102118;29;20046;-70
2021/12/08 08:51:31;;;;;;;29.25;14.27;;;;;;;6.33;70.36;97586.41;5101401;29;20055;-70
2021/12/08 08:54:23;;;;;;;19.98;10.20;;;;;;;6.38;70.05;97585.94;5082874;29;20104;-70
2021/12/08 08:57:17;;;;;;;21.42;9.43;;;;;;;6.38;70.83;97572.75;5082251;29;20071;-70
2021/12/08 09:00:32;;;;;;;14.30;9.00;;;;;;;6.35;70.43;97577.34;5082941;29;20063;-71
2021/12/08 09:03:24;;;;;;;16.33;9.18;;;;;;;6.24;71.13;97574.13;5082132;29;20134;-71
2021/12/08 09:06:20;;;;;;;16.08;8.65;;;;;;;6.33;70.78;97603.00;5096094;29;20143;-70
2021/12/08 09:09:25;;;;;;;14.95;8.65;;;;;;;6.34;70.90;97609.09;5101040;29;20067;-70
2021/12/08 09:12:33;;;;;;;15.38;9.25;;;;;;;6.37;71.23;97619.31;5088514;29;20190;-70
2021/12/08 09:15:31;;;;;;;17.63;9.02;;;;;;;6.45;71.37;97616.75;5101793;29;20051;-71
2021/12/08 09:18:39;;;;;;;15.32;9.52;;;;;;;6.61;70.86;97620.50;5101717;29;20099;-70
2021/12/08 09:21:41;;;;;;;18.15;9.23;;;;;;;6.82;69.29;97624.47;5100774;29;20123;-71
2021/12/08 09:24:38;;;;;;;15.75;8.90;;;;;;;6.78;68.75;97622.28;5109397;29;20122;-71
2021/12/08 09:27:37;;;;;;;17.63;9.45;;;;;;;6.57;70.47;97620.81;5120785;28;20078;-71
2021/12/08 09:30:41;;;;;;;15.38;9.65;;;;;;;6.30;71.04;97613.03;5122028;28;20513;-71
2021/12/08 09:33:39;;;;;;;16.27;9.60;;;;;;;6.09;72.42;97622.03;5121644;28;20066;-71
2021/12/08 09:36:55;;;;;;;20.90;10.75;;;;;;;6.15;71.82;97615.31;5120988;28;20050;-71
2021/12/08 09:39:53;;;;;;;19.13;10.57;;;;;;;5.94;73.00;97615.63;5108966;29;20526;-71
2021/12/08 09:42:48;;;;;;;19.60;10.80;;;;;;;6.08;72.25;97606.38;5101836;29;20523;-71
2021/12/08 09:45:45;;;;;;;18.48;11.07;;;;;;;6.01;72.92;97619.31;5100485;29;20074;-71
2021/12/08 09:48:39;;;;;;;18.25;10.60;;;;;;;6.52;71.14;97622.25;5101869;29;20167;-71
2021/12/08 09:51:30;;;;;;;18.55;10.40;;;;;;;6.58;70.35;97627.72;5101465;29;20629;-71
2021/12/08 09:54:21;;;;;;;17.55;10.68;;;;;;;6.52;71.08;97612.56;5104591;29;20155;-71
2021/12/08 09:57:13;;;;;;;17.58;10.52;;;;;;;6.25;71.16;97600.28;5104617;29;20074;-71
2021/12/08 10:00:10;;;;;;;21.52;11.35;;;;;;;6.29;70.95;97601.66;5104121;29;20107;-70
2021/12/08 10:03:03;;;;;;;18.10;10.50;;;;;;;5.90;72.41;97590.56;5103478;29;20122;-70
2021/12/08 10:05:55;;;;;;;19.05;10.90;;;;;;;6.15;72.00;97593.44;5104750;29;20126;-71
2021/12/08 10:08:46;;;;;;;18.73;10.93;;;;;;;6.26;71.89;97591.44;5104114;29;20134;-71
2021/12/08 10:11:37;;;;;;;26.80;11.35;;;;;;;6.53;71.35;97589.69;5103708;29;20048;-70
2021/12/08 10:14:27;;;;;;;21.60;12.00;;;;;;;6.33;71.62;97581.94;5104748;29;20050;-69
2021/12/08 10:17:19;;;;;;;19.90;11.70;;;;;;;6.14;73.27;97578.66;5104942;29;20566;-69
2021/12/08 10:20:22;;;;;;;23.85;11.68;;;;;;;6.57;71.96;97578.69;5104527;29;20046;-69
2021/12/08 10:23:18;;;;;;;16.55;10.25;;;;;;;6.56;70.33;97590.19;5104694;29;20066;-69
2021/12/08 10:26:20;;;;;;;15.60;9.88;;;;;;;6.46;71.00;97591.28;5103492;29;20497;-69
2021/12/08 10:29:11;;;;;;;18.83;10.85;;;;;;;6.41;71.21;97578.56;5104693;29;20063;-71
2021/12/08 10:32:03;;;;;;;18.20;10.68;;;;;;;6.68;71.19;97585.50;5103090;29;20074;-71
2021/12/08 10:35:05;;;;;;;20.10;11.00;;;;;;;6.79;69.65;97576.53;5103228;29;20051;-71
2021/12/08 10:38:00;;;;;;;17.50;10.93;;;;;;;6.73;70.41;97577.97;5103745;29;20054;-71
2021/12/08 10:41:00;;;;;;;21.67;10.45;;;;;;;6.61;70.91;97573.09;5103288;29;20058;-71
2021/12/08 10:43:59;;;;;;;16.42;10.15;;;;;;;6.28;71.38;97570.22;5103788;29;20142;-71
2021/12/08 10:46:54;;;;;;;22.98;10.98;;;;;;;6.44;72.23;97572.97;5102411;29;20534;-70
2021/12/08 10:56:05;;;;;;;21.65;12.18;;;;;;;6.28;71.72;97567.59;5083828;29;20203;-70
2021/12/08 10:58:58;;;;;;;18.75;12.25;;;;;;;6.35;71.90;97553.66;5096589;29;20048;-71
2021/12/08 11:01:48;;;;;;;21.08;11.32;;;;;;;6.30;71.10;97545.41;5084082;29;20104;-71
2021/12/08 11:04:38;;;;;;;20.83;11.88;;;;;;;6.56;70.58;97557.78;5085071;29;20098;-71
2021/12/08 11:07:29;;;;;;;16.95;11.35;;;;;;;6.61;69.58;97560.75;5102704;29;20505;-71
2021/12/08 11:10:20;;;;;;;16.60;10.88;;;;;;;6.71;70.09;97536.97;5103158;29;20047;-71
2021/12/08 11:13:11;;;;;;;17.75;9.70;;;;;;;6.57;70.39;97535.72;5103728;29;20095;-70
2021/12/08 11:16:15;;;;;;;14.38;9.88;;;;;;;6.30;71.14;97532.25;5103192;29;20106;-70
2021/12/08 11:19:10;;;;;;;;;;;;;;;6.72;70.38;97530.69;5103707;29;20094;-70
2021/12/08 11:22:06;;;;;;;19.08;9.52;;;;;;;6.73;69.29;97529.75;5103153;29;19923;-70
2021/12/08 11:24:58;;;;;;;14.52;9.00;;;;;;;6.63;70.34;97513.22;5103294;29;20051;-71
2021/12/08 11:27:49;;;;;;;14.00;8.10;;;;;;;7.04;69.02;97532.69;5103249;29;20140;-71
2021/12/08 11:30:39;;;;;;;13.68;8.18;;;;;;;7.09;68.29;97534.88;5103456;29;20138;-71
2021/12/08 11:33:30;;;;;;;17.15;8.60;;;;;;;7.03;69.03;97531.88;5102808;29;20086;-70
2021/12/08 11:36:25;;;;;;;13.88;8.32;;;;;;;6.96;68.96;97536.13;5101762;29;20058;-71
2021/12/08 11:39:18;;;;;;;16.45;8.75;;;;;;;6.98;69.49;97526.25;5103304;29;20099;-71
2021/12/08 11:42:16;;;;;;;18.00;8.30;;;;;;;7.05;69.34;97522.00;5075117;29;20119;-71
2021/12/08 11:45:15;;;;;;;17.63;9.48;;;;;;;6.96;70.44;97511.59;5087572;29;20048;-71
2021/12/08 11:48:21;;;;;;;18.65;9.70;;;;;;;7.06;69.83;97510.47;5102929;29;20186;-71
2021/12/08 11:51:12;;;;;;;19.63;9.70;;;;;;;7.13;70.03;97515.13;5103131;29;20055;-71
2021/12/08 11:54:05;;;;;;;16.23;8.80;;;;;;;7.15;70.01;97519.25;5104016;29;20058;-70
2021/12/08 11:57:25;;;;;;;18.87;9.27;;;;;;;7.10;69.54;97520.72;5101836;29;20059;-70
2021/12/08 12:00:22;;;;;;;15.70;8.25;;;;;;;7.09;70.16;97516.44;5103810;29;20960;-70
2021/12/08 12:03:15;;;;;;;15.13;8.63;;;;;;;7.13;70.49;97515.94;5102760;29;20134;-72
2021/12/08 12:06:05;;;;;;;15.35;9.27;;;;;;;7.12;70.24;97516.94;5101453;29;20097;-70
2021/12/08 12:08:57;;;;;;;18.80;9.15;;;;;;;7.13;70.39;97521.22;5086168;29;20047;-71
2021/12/08 12:12:08;;;;;;;52.40;23.65;;;;;;;7.23;69.15;97524.56;5106551;29;20597;-70
2021/12/08 12:14:58;;;;;;;114.80;42.85;;;;;;;7.10;70.72;97516.25;5099154;29;20063;-71
2021/12/08 12:17:49;;;;;;;21.05;12.02;;;;;;;7.15;69.75;97519.25;5088267;29;20146;-71
2021/12/08 12:20:42;;;;;;;15.80;8.25;;;;;;;7.24;70.05;97525.38;5103318;29;20102;-71
2021/12/08 12:24:01;;;;;;;12.90;8.73;;;;;;;7.27;69.04;97528.50;5101936;29;20418;-70
2021/12/08 12:27:26;;;;;;;12.98;9.40;;;;;;;7.26;70.28;97518.16;5114500;28;20118;-71
2021/12/08 12:30:26;;;;;;;12.35;8.65;;;;;;;7.31;69.07;97521.13;5083888;29;20070;-69
2021/12/08 12:33:19;;;;;;;13.43;9.30;;;;;;;7.14;69.28;97496.50;5082610;29;20134;-70
2021/12/08 12:36:23;;;;;;;12.80;9.07;;;;;;;7.29;69.73;97515.19;5082236;29;20056;-69
2021/12/08 12:39:21;;;;;;;13.40;8.90;;;;;;;7.22;69.45;97506.28;5096673;29;20050;-68
2021/12/08 12:42:13;;;;;;;15.25;9.25;;;;;;;7.33;69.68;97515.69;5101524;29;20130;-71
2021/12/08 12:45:08;;;;;;;14.35;9.07;;;;;;;7.19;69.65;97493.41;5118639;28;20055;-69
2021/12/08 12:48:19;;;;;;;15.40;9.48;;;;;;;7.31;69.33;97510.56;5120577;29;20079;-72
2021/12/08 12:51:16;;;;;;;15.80;9.40;;;;;;;7.30;69.18;97499.19;5121191;29;20540;-69
2021/12/08 12:54:24;;;;;;;17.75;9.38;;;;;;;7.38;69.62;97487.03;5102371;29;20634;-70
2021/12/08 12:57:14;;;;;;;14.82;10.25;;;;;;;7.19;71.09;97488.97;5099122;29;20138;-71
2021/12/08 13:00:23;;;;;;;15.45;9.32;;;;;;;7.33;70.10;97476.97;5102240;29;20433;-72
2021/12/08 13:03:46;;;;;;;16.98;10.35;;;;;;;7.36;70.02;97470.56;5081940;29;20056;-68
2021/12/08 13:06:45;;;;;;;22.90;13.82;;;;;;;7.26;70.13;97455.69;5107374;28;20050;-70
2021/12/08 13:09:46;;;;;;;20.88;13.43;;;;;;;7.25;70.02;97458.47;5113631;29;20047;-70
2021/12/08 13:12:44;;;;;;;25.23;12.80;;;;;;;7.23;70.01;97449.91;5105790;29;20082;-70
2021/12/08 13:15:37;;;;;;;15.15;10.73;;;;;;;7.39;70.13;97449.97;5109394;29;20070;-70
2021/12/08 13:18:28;;;;;;;17.45;10.13;;;;;;;7.32;70.66;97433.16;5106858;29;20062;-68
2021/12/08 13:21:38;;;;;;;19.45;9.95;;;;;;;7.37;70.32;97438.75;5107000;29;20050;-71
2021/12/08 13:24:39;;;;;;;19.52;11.13;;;;;;;7.66;68.82;97442.75;5111422;29;20440;-71
2021/12/08 13:27:30;;;;;;;20.10;11.77;;;;;;;7.49;69.32;97453.28;5111620;28;20043;-69
2021/12/08 13:30:21;;;;;;;16.77;10.05;;;;;;;7.60;68.79;97454.78;5111014;29;20059;-71
2021/12/08 13:33:22;;;;;;;20.85;10.43;;;;;;;7.28;69.88;97423.88;5106886;29;20667;-70
2021/12/08 13:36:29;;;;;;;20.73;11.85;;;;;;;7.40;69.72;97440.22;5108636;28;20533;-71
2021/12/08 13:39:29;;;;;;;17.48;12.43;;;;;;;7.33;69.93;97432.16;5106757;29;20515;-71
2021/12/08 13:42:50;;;;;;;23.90;14.93;;;;;;;7.06;70.04;97405.06;5105560;29;20058;-71
2021/12/08 13:45:43;;;;;;;21.10;15.32;;;;;;;7.35;69.38;97445.16;5103120;29;20055;-71
2021/12/08 13:48:34;;;;;;;17.30;13.90;;;;;;;7.38;70.33;97455.38;5104767;29;20048;-69
2021/12/08 13:51:25;;;;;;;18.50;12.63;;;;;;;7.42;70.00;97462.00;5106217;29;20130;-71
2021/12/08 13:54:30;;;;;;;17.15;10.07;;;;;;;7.37;68.98;97472.19;5105356;29;20087;-72
2021/12/08 13:57:36;;;;;;;16.98;10.73;;;;;;;7.35;69.10;97482.06;5106561;29;20519;-73
2021/12/08 14:00:34;;;;;;;16.63;10.48;;;;;;;7.20;69.66;97469.50;5085111;29;20048;-73
2021/12/08 14:03:46;;;;;;;16.85;10.85;;;;;;;7.11;71.27;97486.28;5092312;29;20074;-73
2021/12/08 14:06:36;;;;;;;23.15;13.80;;;;;;;6.81;71.31;97483.19;5107641;28;20130;-71
2021/12/08 14:09:26;;;;;;;18.45;10.32;;;;;;;7.13;70.13;97488.78;5107312;29;20054;-73
2021/12/08 14:12:16;;;;;;;19.67;10.38;;;;;;;7.54;68.26;97495.81;5104181;29;20055;-69
2021/12/08 14:15:06;;;;;;;15.45;10.00;;;;;;;7.30;69.62;97485.19;5104795;29;20051;-69
2021/12/08 14:18:26;;;;;;;18.83;10.35;;;;;;;7.12;69.03;97492.38;5083826;29;20047;-71
2021/12/08 14:21:23;;;;;;;15.98;9.98;;;;;;;7.31;68.92;97492.09;5084173;29;20059;-72
2021/12/08 14:24:14;;;;;;;19.50;10.15;;;;;;;7.11;69.70;97491.53;5083106;29;20060;-72
2021/12/08 14:27:09;;;;;;;18.45;10.25;;;;;;;7.51;68.61;97477.66;5082226;29;20059;-73
2021/12/08 14:29:59;;;;;;;19.60;11.80;;;;;;;7.32;68.71;97487.66;5108931;29;20058;-71
2021/12/08 14:33:03;;;;;;;18.60;11.35;;;;;;;7.29;69.70;97494.09;5118905;29;20062;-71
2021/12/08 14:36:00;;;;;;;21.02;13.07;;;;;;;7.13;69.89;97494.84;5102232;29;20146;-71